sensor_id;sensor_type;location;lat;lon;timestamp;temperature;humidity
14709;DHT22;7445;50.774;4.944;2023-10-31T07:36:32;10.90;1.00
14709;DHT22;7445;50.774;4.944;2023-10-31T08:11:18;11.50;99.90
14709;DHT22;7445;50.774;4.944;2023-10-31T08:13:45;11.40;75.80
14709;DHT22;7445;50.774;4.944;2023-10-31T08:16:19;11.50;91.10
14709;DHT22;7445;50.774;4.944;2023-10-31T08:18:55;11.50;90.10
14709;DHT22;7445;50.774;4.944;2023-10-31T08:21:25;11.50;36.70
14709;DHT22;7445;50.774;4.944;2023-10-31T08:24:02;11.60;38.00
14709;DHT22;7445;50.774;4.944;2023-10-31T08:26:32;11.60;1.00
14709;DHT22;7445;50.774;4.944;2023-10-31T08:28:58;11.60;1.00
14709;DHT22;7445;50.774;4.944;2023-10-31T08:31:27;11.70;1.00
14709;DHT22;7445;50.774;4.944;2023-10-31T08:33:55;11.60;1.00
14709;DHT22;7445;50.774;4.944;2023-10-31T08:36:21;11.70;1.00
14709;DHT22;7445;50.774;4.944;2023-10-31T08:38:48;11.80;1.00
14709;DHT22;7445;50.774;4.944;2023-10-31T08:41:14;11.90;1.00
14709;DHT22;7445;50.774;4.944;2023-10-31T08:43:46;12.00;1.00
14709;DHT22;7445;50.774;4.944;2023-10-31T08:46:11;12.00;1.00
14709;DHT22;7445;50.774;4.944;2023-10-31T08:48:37;12.10;1.00
14709;DHT22;7445;50.774;4.944;2023-10-31T08:51:04;12.10;1.00
14709;DHT22;7445;50.774;4.944;2023-10-31T08:53:29;12.20;1.00
14709;DHT22;7445;50.774;4.944;2023-10-31T08:55:56;12.40;1.00
14709;DHT22;7445;50.774;4.944;2023-10-31T08:58:22;12.40;1.00
14709;DHT22;7445;50.774;4.944;2023-10-31T09:00:47;12.50;1.00
14709;DHT22;7445;50.774;4.944;2023-10-31T09:03:13;12.50;1.00
14709;DHT22;7445;50.774;4.944;2023-10-31T09:05:40;12.50;99.90
14709;DHT22;7445;50.774;4.944;2023-10-31T09:08:06;12.60;1.00
14709;DHT22;7445;50.774;4.944;2023-10-31T09:10:35;12.60;99.90
14709;DHT22;7445;50.774;4.944;2023-10-31T09:13:01;12.70;99.90
14709;DHT22;7445;50.774;4.944;2023-10-31T09:15:26;12.70;99.90
14709;DHT22;7445;50.774;4.944;2023-10-31T09:17:52;12.70;99.90
14709;DHT22;7445;50.774;4.944;2023-10-31T09:20:18;12.80;99.90
14709;DHT22;7445;50.774;4.944;2023-10-31T09:22:46;12.80;99.90
14709;DHT22;7445;50.774;4.944;2023-10-31T09:25:12;12.90;99.90
14709;DHT22;7445;50.774;4.944;2023-10-31T09:27:44;12.90;99.90
14709;DHT22;7445;50.774;4.944;2023-10-31T09:30:09;13.00;99.90
14709;DHT22;7445;50.774;4.944;2023-10-31T09:32:35;13.00;99.90
14709;DHT22;7445;50.774;4.944;2023-10-31T09:35:01;13.10;99.90
14709;DHT22;7445;50.774;4.944;2023-10-31T09:37:27;13.20;95.00
14709;DHT22;7445;50.774;4.944;2023-10-31T09:39:53;13.10;1.00
14709;DHT22;7445;50.774;4.944;2023-10-31T09:42:19;13.20;28.30
14709;DHT22;7445;50.774;4.944;2023-10-31T09:44:45;13.20;99.90
14709;DHT22;7445;50.774;4.944;2023-10-31T09:47:10;13.40;99.90
14709;DHT22;7445;50.774;4.944;2023-10-31T09:49:37;13.60;10.10
14709;DHT22;7445;50.774;4.944;2023-10-31T09:52:03;13.60;1.00
14709;DHT22;7445;50.774;4.944;2023-10-31T09:54:29;13.50;1.00
14709;DHT22;7445;50.774;4.944;2023-10-31T09:56:58;13.50;1.00
14709;DHT22;7445;50.774;4.944;2023-10-31T09:59:23;13.60;1.00
14709;DHT22;7445;50.774;4.944;2023-10-31T10:01:50;13.50;1.00
14709;DHT22;7445;50.774;4.944;2023-10-31T10:04:15;13.40;1.00
14709;DHT22;7445;50.774;4.944;2023-10-31T10:06:59;13.50;1.00
14709;DHT22;7445;50.774;4.944;2023-10-31T10:09:28;13.50;1.00
14709;DHT22;7445;50.774;4.944;2023-10-31T10:11:54;13.70;29.00
14709;DHT22;7445;50.774;4.944;2023-10-31T10:14:23;13.70;1.00
14709;DHT22;7445;50.774;4.944;2023-10-31T10:16:49;13.70;1.00
14709;DHT22;7445;50.774;4.944;2023-10-31T10:19:19;13.80;1.00
14709;DHT22;7445;50.774;4.944;2023-10-31T10:21:51;13.90;1.00
14709;DHT22;7445;50.774;4.944;2023-10-31T10:24:18;13.90;1.00
14709;DHT22;7445;50.774;4.944;2023-10-31T10:26:45;14.10;1.00
14709;DHT22;7445;50.774;4.944;2023-10-31T10:29:10;14.00;1.00
14709;DHT22;7445;50.774;4.944;2023-10-31T10:31:36;14.00;1.00
14709;DHT22;7445;50.774;4.944;2023-10-31T10:34:02;14.00;1.00
14709;DHT22;7445;50.774;4.944;2023-10-31T10:36:27;14.00;1.00
14709;DHT22;7445;50.774;4.944;2023-10-31T10:38:59;14.00;1.00
14709;DHT22;7445;50.774;4.944;2023-10-31T10:41:28;14.00;1.00
14709;DHT22;7445;50.774;4.944;2023-10-31T10:44:07;14.00;1.00
14709;DHT22;7445;50.774;4.944;2023-10-31T10:46:35;14.10;1.00
14709;DHT22;7445;50.774;4.944;2023-10-31T10:49:06;14.00;1.00
14709;DHT22;7445;50.774;4.944;2023-10-31T10:51:45;14.10;1.00
14709;DHT22;7445;50.774;4.944;2023-10-31T10:54:18;14.30;1.00
14709;DHT22;7445;50.774;4.944;2023-10-31T10:59:55;14.30;1.00
14709;DHT22;7445;50.774;4.944;2023-10-31T11:02:28;14.40;1.00
14709;DHT22;7445;50.774;4.944;2023-10-31T11:04:54;14.40;1.00
14709;DHT22;7445;50.774;4.944;2023-10-31T11:07:21;14.30;1.00
14709;DHT22;7445;50.774;4.944;2023-10-31T11:09:49;14.20;1.00
14709;DHT22;7445;50.774;4.944;2023-10-31T11:12:16;14.20;1.00
14709;DHT22;7445;50.774;4.944;2023-10-31T11:14:45;14.30;1.00
14709;DHT22;7445;50.774;4.944;2023-10-31T11:17:26;14.20;1.00
14709;DHT22;7445;50.774;4.944;2023-10-31T11:19:52;13.90;1.00
14709;DHT22;7445;50.774;4.944;2023-10-31T11:22:20;13.70;1.00
14709;DHT22;7445;50.774;4.944;2023-10-31T11:24:45;13.70;1.00
14709;DHT22;7445;50.774;4.944;2023-10-31T11:27:11;13.70;1.00
14709;DHT22;7445;50.774;4.944;2023-10-31T11:29:37;13.80;1.00
14709;DHT22;7445;50.774;4.944;2023-10-31T11:32:03;13.90;1.00
14709;DHT22;7445;50.774;4.944;2023-10-31T11:34:29;13.80;1.00
14709;DHT22;7445;50.774;4.944;2023-10-31T11:37:24;13.90;1.00
14709;DHT22;7445;50.774;4.944;2023-10-31T11:40:14;13.80;1.00
14709;DHT22;7445;50.774;4.944;2023-10-31T11:42:49;13.80;1.00
14709;DHT22;7445;50.774;4.944;2023-10-31T11:45:48;13.70;1.00
14709;DHT22;7445;50.774;4.944;2023-10-31T11:48:14;13.60;1.00
14709;DHT22;7445;50.774;4.944;2023-10-31T11:50:41;13.50;35.00
14709;DHT22;7445;50.774;4.944;2023-10-31T11:53:14;13.50;99.90
14709;DHT22;7445;50.774;4.944;2023-10-31T11:55:45;13.50;1.00
14709;DHT22;7445;50.774;4.944;2023-10-31T11:58:22;13.60;3.10
14709;DHT22;7445;50.774;4.944;2023-10-31T12:00:50;13.80;1.00
14709;DHT22;7445;50.774;4.944;2023-10-31T12:03:18;13.80;1.00
14709;DHT22;7445;50.774;4.944;2023-10-31T12:05:58;13.70;99.90
14709;DHT22;7445;50.774;4.944;2023-10-31T12:08:36;13.70;99.90
14709;DHT22;7445;50.774;4.944;2023-10-31T12:13:34;13.60;99.90
14709;DHT22;7445;50.774;4.944;2023-10-31T12:16:01;13.60;99.90
14709;DHT22;7445;50.774;4.944;2023-10-31T12:19:03;13.60;53.30
14709;DHT22;7445;50.774;4.944;2023-10-31T12:21:49;13.70;98.10
14709;DHT22;7445;50.774;4.944;2023-10-31T12:24:18;13.60;59.90
14709;DHT22;7445;50.774;4.944;2023-10-31T12:26:45;13.60;99.90
14709;DHT22;7445;50.774;4.944;2023-10-31T12:29:19;13.60;51.40
14709;DHT22;7445;50.774;4.944;2023-10-31T12:31:53;13.60;99.90
14709;DHT22;7445;50.774;4.944;2023-10-31T12:34:28;13.60;99.90
14709;DHT22;7445;50.774;4.944;2023-10-31T12:37:15;13.60;99.90
14709;DHT22;7445;50.774;4.944;2023-10-31T12:39:48;13.80;99.90
14709;DHT22;7445;50.774;4.944;2023-10-31T12:42:15;13.90;99.90
14709;DHT22;7445;50.774;4.944;2023-10-31T12:44:42;13.90;1.00
14709;DHT22;7445;50.774;4.944;2023-10-31T12:47:08;13.80;1.00
14709;DHT22;7445;50.774;4.944;2023-10-31T12:49:35;13.80;12.70
14709;DHT22;7445;50.774;4.944;2023-10-31T12:52:02;13.80;53.90
14709;DHT22;7445;50.774;4.944;2023-10-31T12:54:36;13.80;99.90
14709;DHT22;7445;50.774;4.944;2023-10-31T12:57:04;13.70;99.90
14709;DHT22;7445;50.774;4.944;2023-10-31T12:59:31;13.60;99.90
14709;DHT22;7445;50.774;4.944;2023-10-31T13:01:57;13.60;69.90
14709;DHT22;7445;50.774;4.944;2023-10-31T13:04:26;13.50;99.90
14709;DHT22;7445;50.774;4.944;2023-10-31T13:06:59;13.60;36.00
14709;DHT22;7445;50.774;4.944;2023-10-31T13:09:36;13.50;45.00
14709;DHT22;7445;50.774;4.944;2023-10-31T13:12:31;13.40;99.90
14709;DHT22;7445;50.774;4.944;2023-10-31T13:15:23;13.30;99.90
14709;DHT22;7445;50.774;4.944;2023-10-31T13:18:48;13.20;99.90
14709;DHT22;7445;50.774;4.944;2023-10-31T13:21:34;13.10;1.00
14709;DHT22;7445;50.774;4.944;2023-10-31T13:24:38;13.10;1.00
14709;DHT22;7445;50.774;4.944;2023-10-31T13:27:26;13.10;1.00
14709;DHT22;7445;50.774;4.944;2023-10-31T13:29:51;13.10;1.00
14709;DHT22;7445;50.774;4.944;2023-10-31T13:32:19;13.20;1.00
14709;DHT22;7445;50.774;4.944;2023-10-31T13:35:24;13.20;1.00
14709;DHT22;7445;50.774;4.944;2023-10-31T13:38:45;13.10;1.00
14709;DHT22;7445;50.774;4.944;2023-10-31T13:41:53;13.10;1.00
14709;DHT22;7445;50.774;4.944;2023-10-31T13:45:23;13.10;1.00
14709;DHT22;7445;50.774;4.944;2023-10-31T13:48:14;13.10;1.00
14709;DHT22;7445;50.774;4.944;2023-10-31T13:50:41;13.10;1.00
14709;DHT22;7445;50.774;4.944;2023-10-31T13:53:09;13.00;1.00
14709;DHT22;7445;50.774;4.944;2023-10-31T13:55:35;12.90;1.00
14709;DHT22;7445;50.774;4.944;2023-10-31T13:58:27;12.80;1.00
14709;DHT22;7445;50.774;4.944;2023-10-31T14:01:19;12.80;1.00
14709;DHT22;7445;50.774;4.944;2023-10-31T14:04:09;12.70;1.00
14709;DHT22;7445;50.774;4.944;2023-10-31T14:06:56;12.80;1.00
14709;DHT22;7445;50.774;4.944;2023-10-31T14:09:22;12.80;1.00
14709;DHT22;7445;50.774;4.944;2023-10-31T14:11:54;12.80;1.00
14709;DHT22;7445;50.774;4.944;2023-10-31T14:14:20;12.80;1.00
14709;DHT22;7445;50.774;4.944;2023-10-31T14:16:49;12.90;47.20
14709;DHT22;7445;50.774;4.944;2023-10-31T14:19:15;12.90;46.90
14709;DHT22;7445;50.774;4.944;2023-10-31T14:22:18;13.00;9.00
14709;DHT22;7445;50.774;4.944;2023-10-31T14:25:43;12.90;97.20
14709;DHT22;7445;50.774;4.944;2023-10-31T14:29:12;13.00;1.00
14709;DHT22;7445;50.774;4.944;2023-10-31T14:32:30;13.00;1.00
14709;DHT22;7445;50.774;4.944;2023-10-31T14:34:55;13.10;1.00
14709;DHT22;7445;50.774;4.944;2023-10-31T14:37:59;13.10;1.00
14709;DHT22;7445;50.774;4.944;2023-10-31T14:41:14;13.20;1.00
14709;DHT22;7445;50.774;4.944;2023-10-31T14:44:22;13.30;1.00
14709;DHT22;7445;50.774;4.944;2023-10-31T14:47:45;13.50;1.00
14709;DHT22;7445;50.774;4.944;2023-10-31T14:50:11;13.50;1.00
14709;DHT22;7445;50.774;4.944;2023-10-31T14:52:37;13.50;1.00
14709;DHT22;7445;50.774;4.944;2023-10-31T14:55:11;13.50;1.00
14709;DHT22;7445;50.774;4.944;2023-10-31T14:58:26;13.40;1.00
14709;DHT22;7445;50.774;4.944;2023-10-31T15:00:57;13.20;1.00
14709;DHT22;7445;50.774;4.944;2023-10-31T15:03:44;13.00;1.00
14709;DHT22;7445;50.774;4.944;2023-10-31T15:06:30;13.00;1.00
14709;DHT22;7445;50.774;4.944;2023-10-31T15:09:15;12.80;1.00
14709;DHT22;7445;50.774;4.944;2023-10-31T15:15:26;12.70;1.00
14709;DHT22;7445;50.774;4.944;2023-10-31T15:18:15;12.60;1.00
14709;DHT22;7445;50.774;4.944;2023-10-31T15:20:44;12.60;1.00
14709;DHT22;7445;50.774;4.944;2023-10-31T15:23:10;12.50;1.00
14709;DHT22;7445;50.774;4.944;2023-10-31T15:25:39;12.50;43.10
14709;DHT22;7445;50.774;4.944;2023-10-31T15:28:05;12.50;22.20
14709;DHT22;7445;50.774;4.944;2023-10-31T15:30:38;12.50;81.80
14709;DHT22;7445;50.774;4.944;2023-10-31T15:33:04;12.40;99.90
14709;DHT22;7445;50.774;4.944;2023-10-31T15:35:50;12.30;11.60
14709;DHT22;7445;50.774;4.944;2023-10-31T15:38:55;12.20;95.10
14709;DHT22;7445;50.774;4.944;2023-10-31T15:41:21;12.30;99.90
14709;DHT22;7445;50.774;4.944;2023-10-31T15:43:56;12.30;99.90
14709;DHT22;7445;50.774;4.944;2023-10-31T15:46:41;12.20;99.90
14709;DHT22;7445;50.774;4.944;2023-10-31T15:49:48;12.20;99.90
14709;DHT22;7445;50.774;4.944;2023-10-31T15:52:40;12.20;99.90
14709;DHT22;7445;50.774;4.944;2023-10-31T15:55:06;12.20;99.90
14709;DHT22;7445;50.774;4.944;2023-10-31T15:57:32;12.20;99.90
14709;DHT22;7445;50.774;4.944;2023-10-31T15:59:57;12.20;99.90
14709;DHT22;7445;50.774;4.944;2023-10-31T16:02:23;12.20;99.90
14709;DHT22;7445;50.774;4.944;2023-10-31T16:04:49;12.20;99.90
14709;DHT22;7445;50.774;4.944;2023-10-31T16:07:15;12.20;99.90
14709;DHT22;7445;50.774;4.944;2023-10-31T16:09:41;12.20;99.90
14709;DHT22;7445;50.774;4.944;2023-10-31T16:12:07;12.20;99.90
14709;DHT22;7445;50.774;4.944;2023-10-31T16:14:34;12.20;99.90
14709;DHT22;7445;50.774;4.944;2023-10-31T16:17:00;12.10;99.90
14709;DHT22;7445;50.774;4.944;2023-10-31T16:19:26;12.00;99.90
14709;DHT22;7445;50.774;4.944;2023-10-31T16:21:52;11.90;99.90
14709;DHT22;7445;50.774;4.944;2023-10-31T16:24:21;11.90;99.90
14709;DHT22;7445;50.774;4.944;2023-10-31T16:26:46;11.90;99.90
14709;DHT22;7445;50.774;4.944;2023-10-31T16:29:12;11.90;99.90
14709;DHT22;7445;50.774;4.944;2023-10-31T16:31:43;11.90;99.90
14709;DHT22;7445;50.774;4.944;2023-10-31T16:34:11;11.80;99.90
14709;DHT22;7445;50.774;4.944;2023-10-31T16:36:37;11.90;1.00
14709;DHT22;7445;50.774;4.944;2023-10-31T16:39:03;11.80;99.90
14709;DHT22;7445;50.774;4.944;2023-10-31T16:41:29;11.70;99.90
14709;DHT22;7445;50.774;4.944;2023-10-31T16:43:54;11.80;1.00
14709;DHT22;7445;50.774;4.944;2023-10-31T16:46:43;11.70;99.90
14709;DHT22;7445;50.774;4.944;2023-10-31T16:49:43;11.80;1.00
14709;DHT22;7445;50.774;4.944;2023-10-31T16:52:31;11.70;99.90
14709;DHT22;7445;50.774;4.944;2023-10-31T16:55:35;11.70;99.90
14709;DHT22;7445;50.774;4.944;2023-10-31T16:58:21;11.60;99.90
14709;DHT22;7445;50.774;4.944;2023-10-31T17:01:27;11.60;99.90
14709;DHT22;7445;50.774;4.944;2023-10-31T17:03:53;11.60;99.90
14709;DHT22;7445;50.774;4.944;2023-10-31T17:06:38;11.50;99.90
14709;DHT22;7445;50.774;4.944;2023-10-31T17:09:24;11.50;1.00
14709;DHT22;7445;50.774;4.944;2023-10-31T17:11:49;11.50;1.00
14709;DHT22;7445;50.774;4.944;2023-10-31T17:14:15;11.50;1.00
14709;DHT22;7445;50.774;4.944;2023-10-31T17:16:41;11.50;1.00
14709;DHT22;7445;50.774;4.944;2023-10-31T17:19:09;11.50;1.00
14709;DHT22;7445;50.774;4.944;2023-10-31T17:35:36;11.60;1.00
14709;DHT22;7445;50.774;4.944;2023-10-31T17:38:11;11.60;1.00
14709;DHT22;7445;50.774;4.944;2023-10-31T17:41:06;11.70;1.00
14709;DHT22;7445;50.774;4.944;2023-10-31T17:43:40;11.70;1.00
14709;DHT22;7445;50.774;4.944;2023-10-31T17:46:14;11.80;1.00
14709;DHT22;7445;50.774;4.944;2023-10-31T17:52:11;11.90;1.00
14709;DHT22;7445;50.774;4.944;2023-10-31T17:55:06;11.90;1.00
14709;DHT22;7445;50.774;4.944;2023-10-31T17:58:34;11.90;1.00
14709;DHT22;7445;50.774;4.944;2023-10-31T18:01:53;11.90;1.00
14709;DHT22;7445;50.774;4.944;2023-10-31T18:07:04;11.90;1.00
14709;DHT22;7445;50.774;4.944;2023-10-31T18:09:41;11.80;1.00
14709;DHT22;7445;50.774;4.944;2023-10-31T18:12:27;11.80;1.00
14709;DHT22;7445;50.774;4.944;2023-10-31T18:15:36;11.80;1.00
14709;DHT22;7445;50.774;4.944;2023-10-31T18:18:14;11.80;1.00
14709;DHT22;7445;50.774;4.944;2023-10-31T18:20:51;11.70;1.00
14709;DHT22;7445;50.774;4.944;2023-10-31T18:23:29;11.70;1.00
14709;DHT22;7445;50.774;4.944;2023-10-31T18:25:58;11.70;1.00
14709;DHT22;7445;50.774;4.944;2023-10-31T18:31:04;11.80;1.00
14709;DHT22;7445;50.774;4.944;2023-10-31T18:33:35;11.80;1.00
14709;DHT22;7445;50.774;4.944;2023-10-31T18:36:05;11.80;1.00
14709;DHT22;7445;50.774;4.944;2023-10-31T18:38:31;11.80;1.00
14709;DHT22;7445;50.774;4.944;2023-10-31T18:41:10;11.80;1.00
14709;DHT22;7445;50.774;4.944;2023-10-31T18:43:39;11.80;1.00
14709;DHT22;7445;50.774;4.944;2023-10-31T18:46:27;11.80;1.00
14709;DHT22;7445;50.774;4.944;2023-10-31T18:51:32;11.80;1.00
14709;DHT22;7445;50.774;4.944;2023-10-31T18:57:07;11.80;1.00
14709;DHT22;7445;50.774;4.944;2023-10-31T18:59:46;11.80;1.00
14709;DHT22;7445;50.774;4.944;2023-10-31T19:02:52;11.80;1.00
14709;DHT22;7445;50.774;4.944;2023-10-31T19:05:25;11.80;1.00
14709;DHT22;7445;50.774;4.944;2023-10-31T19:08:40;11.80;1.00
14709;DHT22;7445;50.774;4.944;2023-10-31T19:14:20;11.80;1.00
14709;DHT22;7445;50.774;4.944;2023-10-31T19:17:32;11.80;1.00
14709;DHT22;7445;50.774;4.944;2023-10-31T19:20:49;11.80;1.00
14709;DHT22;7445;50.774;4.944;2023-10-31T19:23:35;11.80;1.00
14709;DHT22;7445;50.774;4.944;2023-10-31T19:26:24;11.80;1.00
14709;DHT22;7445;50.774;4.944;2023-10-31T19:29:49;11.80;1.00
14709;DHT22;7445;50.774;4.944;2023-10-31T19:32:54;11.80;1.00
14709;DHT22;7445;50.774;4.944;2023-10-31T19:35:58;11.80;1.00
14709;DHT22;7445;50.774;4.944;2023-10-31T19:39:30;11.80;1.00
14709;DHT22;7445;50.774;4.944;2023-10-31T19:42:57;11.80;1.00
14709;DHT22;7445;50.774;4.944;2023-10-31T19:46:05;11.80;1.00
14709;DHT22;7445;50.774;4.944;2023-10-31T19:48:51;11.80;1.00
14709;DHT22;7445;50.774;4.944;2023-10-31T19:51:39;11.80;1.00
14709;DHT22;7445;50.774;4.944;2023-10-31T19:55:10;11.80;1.00
14709;DHT22;7445;50.774;4.944;2023-10-31T19:58:27;11.80;1.00
14709;DHT22;7445;50.774;4.944;2023-10-31T20:01:38;11.80;1.00
14709;DHT22;7445;50.774;4.944;2023-10-31T20:04:33;11.80;1.00
14709;DHT22;7445;50.774;4.944;2023-10-31T20:07:19;11.80;1.00
14709;DHT22;7445;50.774;4.944;2023-10-31T20:10:43;11.80;1.00
14709;DHT22;7445;50.774;4.944;2023-10-31T20:13:20;11.90;1.00
14709;DHT22;7445;50.774;4.944;2023-10-31T20:16:09;11.90;1.00
14709;DHT22;7445;50.774;4.944;2023-10-31T20:24:34;12.00;1.00
14709;DHT22;7445;50.774;4.944;2023-10-31T20:27:09;11.90;1.00
14709;DHT22;7445;50.774;4.944;2023-10-31T20:29:45;11.90;1.00
14709;DHT22;7445;50.774;4.944;2023-10-31T20:32:17;11.90;1.00
14709;DHT22;7445;50.774;4.944;2023-10-31T20:40:29;12.00;1.00
14709;DHT22;7445;50.774;4.944;2023-10-31T20:46:24;12.00;1.00
14709;DHT22;7445;50.774;4.944;2023-10-31T20:48:50;11.90;99.90
14709;DHT22;7445;50.774;4.944;2023-10-31T20:51:15;11.90;1.00
14709;DHT22;7445;50.774;4.944;2023-10-31T20:53:41;11.90;99.90
14709;DHT22;7445;50.774;4.944;2023-10-31T20:56:07;11.90;99.90
14709;DHT22;7445;50.774;4.944;2023-10-31T20:58:34;11.90;1.00
14709;DHT22;7445;50.774;4.944;2023-10-31T21:00:59;11.90;99.90
14709;DHT22;7445;50.774;4.944;2023-10-31T21:03:26;11.90;1.00
14709;DHT22;7445;50.774;4.944;2023-10-31T21:05:52;11.90;1.00
14709;DHT22;7445;50.774;4.944;2023-10-31T21:08:17;11.90;1.00
14709;DHT22;7445;50.774;4.944;2023-10-31T21:10:43;11.80;1.00
14709;DHT22;7445;50.774;4.944;2023-10-31T21:13:09;11.80;1.00
14709;DHT22;7445;50.774;4.944;2023-10-31T21:15:35;11.90;1.00
14709;DHT22;7445;50.774;4.944;2023-10-31T21:18:01;11.90;1.00
14709;DHT22;7445;50.774;4.944;2023-10-31T21:20:27;11.90;99.90
14709;DHT22;7445;50.774;4.944;2023-10-31T21:22:53;12.00;99.90
14709;DHT22;7445;50.774;4.944;2023-10-31T21:25:19;11.90;99.90
14709;DHT22;7445;50.774;4.944;2023-10-31T21:27:45;11.90;1.00
14709;DHT22;7445;50.774;4.944;2023-10-31T21:30:15;11.90;1.00
14709;DHT22;7445;50.774;4.944;2023-10-31T21:32:42;12.00;1.00
14709;DHT22;7445;50.774;4.944;2023-10-31T21:35:09;12.00;99.90
14709;DHT22;7445;50.774;4.944;2023-10-31T21:37:36;12.00;99.90
14709;DHT22;7445;50.774;4.944;2023-10-31T21:40:04;12.00;1.00
14709;DHT22;7445;50.774;4.944;2023-10-31T21:42:30;12.10;1.00
